Aeroporto :
LOGIN :

Iscrizione | Disclaimer

   EN    FR    IT 

 










Sommario :    VFR   VFR Marginale   IFR   IFR Intensivo   IFR Molto Intensivo
Visibilità : 
Base nubi : 
>= 8 km
>= 3000ft
5 / 8 km
1000 / 3000 ft
1500m / 5 km
500 / 1000 ft
800 / 1500m
200 / 500 ft
< 800m
< 200 ft
Simboli :   Temporali  Nebbia  Neve Forte  Precipitazioni Forti  Vento > 20 kt
SIGMETs :   Varie  Temporali  Ghiacco  Turbolenza  Onda orograficha  Ceneri Vulcaniche







- Altitudine del aeroporto : 19 ft
- Codice IATA : BEB
- Carte del aeroporto


EGPL - Benbecula

ULTIMO METAR :
  • 250520Z AUTO 32012KT 9999 SCT044/// 07/02 Q1031

METARs OBSOLETI :
  • 250450Z AUTO 31011KT 9999 FEW035/// 06/03 Q1031
  • 250420Z AUTO 31015KT 9999 -RA SCT030/// BKN038/// 06/03 Q1031
  • 250350Z AUTO 31013KT 9999 OVC046/// 07/01 Q1031
  • 250320Z AUTO 32015KT 9999 BKN040/// OVC049/// 07/02 Q1030
  • 250250Z AUTO 32013KT 9999 SCT038/// OVC044/// 07/01 Q1030

TAF TAF EGPL
Valido dal 25 a 06 ore il 25 a 15 ore UTC


250455Z 2506/2515 31012KT 9999 SCT030
TEMPO 2506/2509 32015G25KT 8000 -SHRA
BECMG 2509/2512 24009KT
PROB30
TEMPO 2509/2515 8000 -RA
ATIS : +44 1870 604 818
Nessun NOTAM noto per questo aeroporto.
1 SIGMET conosciuto per la FIR Scottish (EGPX) :
 
Turbolenza severa
EGPX SIGMET 01 VALID 250200/250600 EGRR
EGPX SCOTTISH FIR SEV TURB FCST WI N5700 E00500 - N5500 E00500 - N5500 W00040 - N5555 W00138 - N5740 E00353 - N5700 E00500 SFC/FL060 MOV SE 30KT NC=



MetMap, La meteo Aeronautica in un colpo d'occhio ! - Copyright ORBIFLY Dicembre 2007 - Disclaimer

ORBIFLY MET'MAP TEAM :

Programmazione e sviluppo : Alexandra Zaïnal
Concezione e sviluppo : Baudouin d'Aumeries
Co-Programmazione e sviluppo : Marc-Olivier Méhu
Supporto tecnico e logistico : Manuel Goepfert
Aiuto per la traduzione : Arnaldo La Scala

Contatto : metmap@orbifly.com




FONTI E CREDITI :

   NOAA